Terminal Aerodrome Forecast
Issued by NWS

Home | Current Version | Previous Version | Text Only | Print | Product List | Glossary On
Versions: 1 2 3 4 5 6 7 8 9 10 11 12 13 14 15 16 17 18 19 20 21 22 23 24 25 26 27 28 29 30 31 32 33 34 35 36
000
FTUS44 KOUN 271122
TAFGAG
TAF
KGAG 271122Z 2712/2812 10007KT P6SM VCTS SCT040CB OVC080
      TEMPO 2712/2714 VRB15G25KT 3SM -TSRA BKN040CB
     FM271400 17010G15KT P6SM SCT100 BKN250 PROB30 2800/2806 4SM
      -TSRA BKN050CB=

USA.gov is the U.S. government's official web portal to all federal, state and local government web resources and services.